Springfield, Georgia
Current Conditions -  °F | °C
As of 2:53 PM on Tuesday 21 Oct 2014 (Local Time) from KSAV Reporting Station
Clear Clear  
Wind Chill: 80°   Ceiling: Unl
Heat Index: 80°   Visibility: 10mi
Dew Point: 53°   Wind: 12mph
Humidity: 39%   Direction: 290°WNW
Pressure: 29.91"   Gusts: NA
Location:  32.37°N, 81.31°W
Report Text: KSAV 211853Z 29010KT 10SM CLR 27/12 A2991 RMK AO2 SLP126 T02670117
Loading
Personal Weather Stations






























Interactive Weather Map New forecast layout! Learn more

10-Day Weather Forecast

Advertisements
Track Severe Weather on mobile